Time;durP1;ratioP1;P1;durP2;ratioP2;P2;SDS_P1;SDS_P2;PMS_P1;PMS_P2;Temp;Humidity;BMP_temperature;BMP_pressure;BME280_temperature;BME280_humidity;BME280_pressure;Samples;Min_cycle;Max_cycle;Signal;HPM_P1;HPM_P2
2023/04/19 00:02:17;;;;;;;7.82;3.90;;;;;;;-145.41;100.00;58600.66;4984488;28;20472;-71
2023/04/19 00:04:43;;;;;;;7.63;4.45;;;;;;;-145.41;100.00;58600.66;4982659;28;20121;-70
2023/04/19 00:07:09;;;;;;;10.75;4.18;;;;;;;-145.41;100.00;58600.66;4988722;28;20495;-70
2023/04/19 00:09:35;;;;;;;9.30;4.57;;;;;;;-145.41;100.00;58600.66;4982890;28;20101;-71
2023/04/19 00:12:01;;;;;;;7.30;4.53;;;;;;;-145.41;100.00;58600.66;4980416;28;20050;-71
2023/04/19 00:14:26;;;;;;;7.47;4.47;;;;;;;-145.41;100.00;58600.66;4984965;28;20038;-71
2023/04/19 00:16:52;;;;;;;9.38;4.75;;;;;;;-145.41;100.00;58600.66;4994316;28;20028;-71
2023/04/19 00:19:17;;;;;;;8.73;4.80;;;;;;;-145.41;100.00;58600.66;4986180;28;20186;-71
2023/04/19 00:21:42;;;;;;;10.07;4.82;;;;;;;-145.41;100.00;58600.66;4980311;28;20651;-71
2023/04/19 00:24:08;;;;;;;7.22;4.25;;;;;;;-145.41;100.00;58600.66;4985300;28;20561;-71
2023/04/19 00:26:33;;;;;;;9.93;4.82;;;;;;;-145.41;100.00;58600.66;4981919;28;20042;-71
2023/04/19 00:28:58;;;;;;;7.20;4.25;;;;;;;-145.41;100.00;58600.66;4983656;28;20064;-71
2023/04/19 00:31:24;;;;;;;9.27;5.00;;;;;;;-145.41;100.00;58600.66;4982299;28;20097;-70
2023/04/19 00:33:49;;;;;;;7.82;4.72;;;;;;;-145.41;100.00;58600.66;4971388;28;20062;-71
2023/04/19 00:36:14;;;;;;;7.78;4.35;;;;;;;-145.41;100.00;58600.66;4986038;28;20497;-70
2023/04/19 00:38:40;;;;;;;10.07;4.80;;;;;;;-145.41;100.00;58600.66;4971446;28;20608;-70
2023/04/19 00:41:05;;;;;;;9.70;4.85;;;;;;;-145.41;100.00;58600.66;4983772;28;20050;-71
2023/04/19 00:43:31;;;;;;;11.13;5.05;;;;;;;-145.41;100.00;58600.66;4982839;28;20030;-71
2023/04/19 00:45:56;;;;;;;8.02;4.75;;;;;;;-145.41;100.00;58600.66;4963789;28;20406;-71
2023/04/19 00:48:22;;;;;;;10.88;5.35;;;;;;;-145.41;100.00;58600.66;4982889;28;20121;-70
2023/04/19 00:50:47;;;;;;;11.43;4.97;;;;;;;-145.41;100.00;58600.66;4967920;28;20041;-71
2023/04/19 00:53:13;;;;;;;10.52;4.85;;;;;;;-145.41;100.00;58600.66;4978321;28;20073;-71
2023/04/19 00:55:38;;;;;;;7.65;5.10;;;;;;;-145.41;100.00;58600.66;5040370;23;20046;-76
2023/04/19 00:58:06;;;;;;;9.52;4.78;;;;;;;-145.41;100.00;58600.66;5025162;28;20088;-76
2023/04/19 01:00:32;;;;;;;9.07;5.15;;;;;;;-145.41;100.00;58600.66;5026261;28;20026;-76
2023/04/19 01:02:57;;;;;;;8.88;5.35;;;;;;;-145.41;100.00;58600.66;5022880;28;20038;-76
2023/04/19 01:05:23;;;;;;;9.13;5.50;;;;;;;-145.41;100.00;58600.66;5013094;28;20037;-76
2023/04/19 01:07:48;;;;;;;11.35;5.47;;;;;;;-145.41;100.00;58600.66;5011086;28;20528;-76
2023/04/19 01:10:14;;;;;;;9.85;5.10;;;;;;;-145.41;100.00;58600.66;5010784;28;20480;-76
2023/04/19 01:12:40;;;;;;;10.07;5.75;;;;;;;-145.41;100.00;58600.66;5010900;28;20095;-76
2023/04/19 01:15:06;;;;;;;15.18;5.65;;;;;;;-145.41;100.00;58600.66;5010919;28;20034;-76
2023/04/19 01:17:31;;;;;;;8.40;4.97;;;;;;;-145.41;100.00;58600.66;4993347;28;20073;-76
2023/04/19 01:19:59;;;;;;;12.30;6.78;;;;;;;-145.41;100.00;58600.66;4993056;28;20038;-76
2023/04/19 01:22:24;;;;;;;13.52;5.90;;;;;;;-145.41;100.00;58600.66;5010930;28;20040;-76
2023/04/19 01:24:50;;;;;;;11.30;6.90;;;;;;;-145.41;100.00;58600.66;5010695;28;20029;-76
2023/04/19 01:27:16;;;;;;;9.52;5.93;;;;;;;-145.41;100.00;58600.66;4992869;28;20042;-76
2023/04/19 01:29:42;;;;;;;11.25;5.90;;;;;;;-145.41;100.00;58600.66;4992945;28;20040;-76
2023/04/19 01:32:08;;;;;;;13.60;6.90;;;;;;;-145.41;100.00;58600.66;5010911;28;20491;-76
2023/04/19 01:34:33;;;;;;;10.07;5.85;;;;;;;-145.41;100.00;58600.66;4993172;28;20132;-76
2023/04/19 01:36:58;;;;;;;13.90;7.00;;;;;;;-145.41;100.00;58600.66;5010746;28;20038;-76
2023/04/19 01:39:26;;;;;;;10.30;5.68;;;;;;;-145.41;100.00;58600.66;5010470;28;20025;-76
2023/04/19 01:41:51;;;;;;;14.00;6.72;;;;;;;-145.41;100.00;58600.66;4992018;28;20038;-77
2023/04/19 01:44:16;;;;;;;12.98;6.82;;;;;;;-145.41;100.00;58600.66;5006335;28;20087;-76
2023/04/19 01:46:42;;;;;;;11.82;7.00;;;;;;;-145.41;100.00;58600.66;4996610;28;20041;-76
2023/04/19 01:49:08;;;;;;;12.00;5.88;;;;;;;-145.41;100.00;58600.66;5011730;28;20050;-76
2023/04/19 01:51:33;;;;;;;10.27;6.30;;;;;;;-145.41;100.00;58600.66;5014063;28;20172;-76
2023/04/19 01:54:01;;;;;;;11.43;6.82;;;;;;;-145.41;100.00;58600.66;4994695;28;20116;-76
2023/04/19 01:56:26;;;;;;;11.98;6.22;;;;;;;-145.41;100.00;58600.66;4999186;28;20033;-76
2023/04/19 01:58:52;;;;;;;11.05;5.90;;;;;;;-145.41;100.00;58600.66;4998986;28;20561;-76
2023/04/19 02:01:17;;;;;;;11.88;6.38;;;;;;;-145.41;100.00;58600.66;4996467;28;20566;-76
2023/04/19 02:03:43;;;;;;;10.10;6.43;;;;;;;-145.41;100.00;58600.66;5019479;28;20029;-76
2023/04/19 02:06:12;;;;;;;12.93;6.38;;;;;;;-145.41;100.00;58600.66;5017540;28;20120;-76
2023/04/19 02:08:39;;;;;;;14.20;6.13;;;;;;;-145.41;100.00;58600.66;5013707;28;20038;-76
2023/04/19 02:11:06;;;;;;;11.80;6.40;;;;;;;-145.41;100.00;58600.66;5003741;28;20034;-76
2023/04/19 02:13:32;;;;;;;13.48;7.50;;;;;;;-145.41;100.00;58600.66;4996195;28;20504;-76
2023/04/19 02:15:57;;;;;;;10.88;5.97;;;;;;;-145.41;100.00;58600.66;5013665;28;20030;-76
2023/04/19 02:18:22;;;;;;;9.90;5.90;;;;;;;-145.41;100.00;58600.66;4996055;28;20524;-76
2023/04/19 02:20:49;;;;;;;13.57;6.93;;;;;;;-145.41;100.00;58600.66;4995751;28;20403;-77
2023/04/19 02:23:14;;;;;;;11.68;6.82;;;;;;;-145.41;100.00;58600.66;4996001;28;20034;-76
2023/04/19 02:25:40;;;;;;;10.75;6.78;;;;;;;-145.41;100.00;58600.66;4995630;28;20041;-76
2023/04/19 02:28:05;;;;;;;12.23;7.20;;;;;;;-145.41;100.00;58600.66;4995851;28;20523;-76
2023/04/19 02:30:30;;;;;;;13.90;7.30;;;;;;;-145.41;100.00;58600.66;5013164;28;20493;-76
2023/04/19 02:32:57;;;;;;;12.95;6.30;;;;;;;-145.41;100.00;58600.66;5013469;28;20412;-76
2023/04/19 02:35:22;;;;;;;12.18;7.32;;;;;;;-145.41;100.00;58600.66;5013132;28;20045;-76
2023/04/19 02:37:48;;;;;;;10.63;6.85;;;;;;;-145.41;100.00;58600.66;4995743;28;20030;-76
2023/04/19 02:40:14;;;;;;;13.48;6.75;;;;;;;-145.41;100.00;58600.66;5012737;28;20030;-76
2023/04/19 02:42:40;;;;;;;10.98;6.53;;;;;;;-145.41;100.00;58600.66;5013199;28;20489;-76
2023/04/19 02:45:06;;;;;;;10.93;6.28;;;;;;;-145.41;100.00;58600.66;5013083;28;20109;-76
2023/04/19 02:47:31;;;;;;;12.82;6.30;;;;;;;-145.41;100.00;58600.66;5013085;28;20121;-76
2023/04/19 02:49:56;;;;;;;13.73;7.20;;;;;;;-145.41;100.00;58600.66;5012430;28;20124;-76
2023/04/19 02:52:22;;;;;;;10.98;6.10;;;;;;;-145.41;100.00;58600.66;4995304;28;20068;-76
2023/04/19 02:54:47;;;;;;;12.98;6.60;;;;;;;-145.41;100.00;58600.66;4994815;28;20037;-76
2023/04/19 02:57:13;;;;;;;11.25;6.15;;;;;;;-145.41;100.00;58600.66;4995309;28;20030;-76
2023/04/19 02:59:40;;;;;;;11.27;6.50;;;;;;;-145.41;100.00;58600.66;4995042;28;20034;-76
2023/04/19 03:02:05;;;;;;;14.20;6.10;;;;;;;-145.41;100.00;58600.66;4995290;28;20560;-76
2023/04/19 03:04:31;;;;;;;10.98;5.85;;;;;;;-145.41;100.00;58600.66;5012676;28;20038;-76
2023/04/19 03:06:56;;;;;;;11.07;5.90;;;;;;;-145.41;100.00;58600.66;4994979;28;20415;-76
2023/04/19 03:09:22;;;;;;;10.43;5.63;;;;;;;-145.41;100.00;58600.66;4994599;28;20451;-76
2023/04/19 03:11:47;;;;;;;9.23;5.20;;;;;;;-145.41;100.00;58600.66;4995034;28;20042;-76
2023/04/19 03:14:15;;;;;;;11.98;5.80;;;;;;;-145.41;100.00;58600.66;5012428;28;20034;-76
2023/04/19 03:16:40;;;;;;;13.57;4.95;;;;;;;-145.41;100.00;58600.66;5012529;28;20504;-76
2023/04/19 03:19:05;;;;;;;7.68;4.53;;;;;;;-145.41;100.00;58600.66;4978374;28;20548;-76
2023/04/19 03:21:37;;;;;;;11.65;4.93;;;;;;;-145.41;100.00;58600.66;4991682;28;20056;-76
2023/04/19 03:24:02;;;;;;;10.43;5.30;;;;;;;-145.41;100.00;58600.66;4994409;28;20041;-76
2023/04/19 03:26:28;;;;;;;9.27;4.50;;;;;;;-145.41;100.00;58600.66;4995409;28;20030;-76
2023/04/19 03:28:55;;;;;;;10.73;4.70;;;;;;;-145.41;100.00;58600.66;4994887;28;20129;-76
2023/04/19 03:31:25;;;;;;;8.48;4.28;;;;;;;-145.41;100.00;58600.66;4994662;28;20041;-76
2023/04/19 03:33:52;;;;;;;10.68;4.55;;;;;;;-145.41;100.00;58600.66;4993480;28;20029;-76
2023/04/19 03:36:20;;;;;;;9.38;4.32;;;;;;;-145.41;100.00;58600.66;4997089;28;20518;-76
2023/04/19 03:38:46;;;;;;;8.18;4.53;;;;;;;-145.41;100.00;58600.66;4994422;28;20029;-75
2023/04/19 03:41:22;;;;;;;7.65;3.70;;;;;;;-145.41;100.00;58600.66;4990748;28;20034;-76
2023/04/19 03:43:52;;;;;;;9.25;4.50;;;;;;;-145.41;100.00;58600.66;4991122;28;20033;-76
2023/04/19 03:46:18;;;;;;;10.70;4.22;;;;;;;-145.41;100.00;58600.66;5011653;28;20502;-76
2023/04/19 03:48:43;;;;;;;6.75;4.00;;;;;;;-145.41;100.00;58600.66;4999244;28;20507;-75
2023/04/19 03:51:08;;;;;;;8.80;4.47;;;;;;;-145.41;100.00;58600.66;5013229;28;20122;-76
2023/04/19 03:53:35;;;;;;;9.15;4.13;;;;;;;-145.41;100.00;58600.66;4992338;28;20053;-76
2023/04/19 03:56:00;;;;;;;7.25;3.15;;;;;;;-145.41;100.00;58600.66;5009441;28;20034;-76
2023/04/19 03:58:27;;;;;;;6.93;3.80;;;;;;;-145.41;100.00;58600.66;4994015;28;20399;-77
2023/04/19 04:01:00;;;;;;;9.52;3.80;;;;;;;-145.41;100.00;58600.66;4993591;28;20091;-76
2023/04/19 04:03:25;;;;;;;9.35;3.00;;;;;;;-145.41;100.00;58600.66;4992775;28;20132;-76
2023/04/19 04:05:51;;;;;;;6.93;3.35;;;;;;;-145.41;100.00;58600.66;4993994;28;20055;-76
2023/04/19 04:08:17;;;;;;;6.97;3.05;;;;;;;-145.41;100.00;58600.66;4990421;28;20492;-76
2023/04/19 04:10:42;;;;;;;6.32;2.80;;;;;;;-145.41;100.00;58600.66;4994391;28;20045;-76
2023/04/19 04:13:08;;;;;;;9.02;3.30;;;;;;;-145.41;100.00;58600.66;4996226;28;20029;-76
2023/04/19 04:15:41;;;;;;;6.13;3.00;;;;;;;-145.41;100.00;58600.66;4995670;28;20552;-76
2023/04/19 04:18:10;;;;;;;11.65;2.90;;;;;;;-145.41;100.00;58600.66;4995399;28;20120;-76
2023/04/19 04:20:36;;;;;;;9.63;3.55;;;;;;;-145.41;100.00;58600.66;5012321;28;20483;-76
2023/04/19 04:23:06;;;;;;;5.78;2.45;;;;;;;-145.41;100.00;58600.66;4993861;28;20120;-76
2023/04/19 04:25:31;;;;;;;4.82;2.70;;;;;;;-145.41;100.00;58600.66;4993778;28;20034;-76
2023/04/19 04:28:00;;;;;;;9.60;4.70;;;;;;;-145.41;100.00;58600.66;4993613;28;20056;-77
2023/04/19 04:30:27;;;;;;;7.55;3.70;;;;;;;-145.41;100.00;58600.66;4993575;28;20551;-76
2023/04/19 04:32:56;;;;;;;5.68;2.60;;;;;;;-145.41;100.00;58600.66;4993654;28;20051;-76
2023/04/19 04:35:22;;;;;;;3.75;1.85;;;;;;;-145.41;100.00;58600.66;5004528;28;20080;-76
2023/04/19 04:37:54;;;;;;;4.17;2.00;;;;;;;-145.41;100.00;58600.66;4993794;28;20134;-77
2023/04/19 04:40:20;;;;;;;5.15;2.17;;;;;;;-145.41;100.00;58600.66;5011156;28;20363;-77
2023/04/19 04:42:46;;;;;;;6.18;2.30;;;;;;;-145.41;100.00;58600.66;4992044;28;20584;-76
2023/04/19 04:45:12;;;;;;;6.90;2.20;;;;;;;-145.41;100.00;58600.66;4995213;28;20029;-77
2023/04/19 04:47:40;;;;;;;5.53;2.17;;;;;;;-145.41;100.00;58600.66;4996323;28;20484;-76
2023/04/19 04:50:06;;;;;;;8.40;2.03;;;;;;;-145.41;100.00;58600.66;5011299;28;20034;-76
2023/04/19 04:52:32;;;;;;;5.30;2.05;;;;;;;-145.41;100.00;58600.66;4993589;28;20038;-76
2023/04/19 04:55:10;;;;;;;4.38;2.00;;;;;;;-145.41;100.00;58600.66;4993519;28;20038;-76
2023/04/19 04:57:41;;;;;;;3.80;1.92;;;;;;;-145.41;100.00;58600.66;4998058;28;20030;-76
2023/04/19 05:00:11;;;;;;;3.55;1.75;;;;;;;-145.41;100.00;58600.66;5003977;28;20026;-76
2023/04/19 05:02:44;;;;;;;7.82;2.85;;;;;;;-145.41;100.00;58600.66;4993650;28;20037;-76
2023/04/19 05:05:12;;;;;;;9.07;1.80;;;;;;;-145.41;100.00;58600.66;4993738;28;20038;-76
2023/04/19 05:07:38;;;;;;;4.40;1.95;;;;;;;-145.41;100.00;58600.66;4993401;28;20072;-76
2023/04/19 05:10:04;;;;;;;4.05;1.70;;;;;;;-145.41;100.00;58600.66;4992862;28;20062;-76
2023/04/19 05:12:38;;;;;;;8.63;1.65;;;;;;;-145.41;100.00;58600.66;4990101;28;20060;-76
2023/04/19 05:15:05;;;;;;;5.47;1.92;;;;;;;-145.41;100.00;58600.66;4993354;28;20559;-76
2023/04/19 05:17:31;;;;;;;4.00;1.70;;;;;;;-145.41;100.00;58600.66;4990693;28;20125;-76
2023/04/19 05:19:56;;;;;;;6.53;2.17;;;;;;;-145.41;100.00;58600.66;5014522;28;20105;-76
2023/04/19 05:22:21;;;;;;;4.47;1.95;;;;;;;-145.41;100.00;58600.66;4996966;28;20488;-76
2023/04/19 05:24:49;;;;;;;7.70;2.13;;;;;;;-145.41;100.00;58600.66;4996918;28;20056;-76
2023/04/19 05:27:15;;;;;;;4.47;1.80;;;;;;;-145.41;100.00;58600.66;4996979;28;20072;-76
2023/04/19 05:29:41;;;;;;;5.18;2.08;;;;;;;-145.41;100.00;58600.66;4996566;28;20057;-76
2023/04/19 05:32:06;;;;;;;4.35;1.70;;;;;;;-145.41;100.00;58600.66;4996875;28;20026;-76
2023/04/19 05:34:37;;;;;;;5.20;2.33;;;;;;;-145.41;100.00;58600.66;5014340;28;20468;-76
2023/04/19 05:37:04;;;;;;;5.85;1.92;;;;;;;-145.41;100.00;58600.66;4996769;28;20554;-76
2023/04/19 05:39:29;;;;;;;4.28;1.88;;;;;;;-145.41;100.00;58600.66;4996424;28;20061;-76
2023/04/19 05:41:56;;;;;;;5.93;2.35;;;;;;;-145.41;100.00;58600.66;4996645;28;20040;-76
2023/04/19 05:44:22;;;;;;;4.35;1.90;;;;;;;-145.41;100.00;58600.66;4996222;28;20030;-76
2023/04/19 05:46:47;;;;;;;5.22;2.10;;;;;;;-145.41;100.00;58600.66;4996663;28;20034;-76
2023/04/19 05:49:18;;;;;;;6.20;2.05;;;;;;;-145.41;100.00;58600.66;4992296;28;20076;-76
2023/04/19 05:52:02;;;;;;;6.68;2.20;;;;;;;-145.41;100.00;58600.66;5012706;28;20104;-76
2023/04/19 05:54:48;;;;;;;3.55;1.70;;;;;;;-145.41;100.00;58600.66;5014040;28;20045;-76
2023/04/19 05:57:13;;;;;;;4.10;1.90;;;;;;;-145.41;100.00;58600.66;4992618;28;20092;-76
2023/04/19 05:59:39;;;;;;;3.78;1.92;;;;;;;-145.41;100.00;58600.66;4990891;28;20031;-76
2023/04/19 06:02:06;;;;;;;4.55;1.88;;;;;;;-145.41;100.00;58600.66;4995377;28;20531;-76
2023/04/19 06:04:31;;;;;;;6.15;2.15;;;;;;;-145.41;100.00;58600.66;4995997;28;20062;-77
2023/04/19 06:06:57;;;;;;;5.10;1.92;;;;;;;-145.41;100.00;58600.66;4996125;28;20037;-76
2023/04/19 06:09:22;;;;;;;6.80;2.22;;;;;;;-145.41;100.00;58600.66;5013188;28;20092;-76
2023/04/19 06:11:48;;;;;;;5.25;1.90;;;;;;;-145.41;100.00;58600.66;4995565;28;20034;-76
2023/04/19 06:14:13;;;;;;;4.43;1.63;;;;;;;-145.41;100.00;58600.66;4996664;28;20025;-76
2023/04/19 06:16:39;;;;;;;5.45;1.73;;;;;;;-145.41;100.00;58600.66;5018829;28;20395;-76
2023/04/19 06:19:06;;;;;;;4.82;2.00;;;;;;;-145.41;100.00;58600.66;5015112;28;20026;-76
2023/04/19 06:21:32;;;;;;;4.05;1.75;;;;;;;-145.41;100.00;58600.66;5012044;28;20038;-76
2023/04/19 06:23:57;;;;;;;6.05;1.75;;;;;;;-145.41;100.00;58600.66;5016962;28;20615;-76
2023/04/19 06:26:23;;;;;;;5.47;2.00;;;;;;;-145.41;100.00;58600.66;5015906;28;20037;-76
2023/04/19 06:28:48;;;;;;;5.88;2.50;;;;;;;-145.41;100.00;58600.66;5013033;28;20049;-76
2023/04/19 06:31:13;;;;;;;4.78;1.80;;;;;;;-145.41;100.00;58600.66;5016228;28;20038;-76
2023/04/19 06:33:38;;;;;;;5.15;2.38;;;;;;;-145.41;100.00;58600.66;5020674;28;20041;-76
2023/04/19 06:36:04;;;;;;;4.47;2.10;;;;;;;-145.41;100.00;58600.66;5015476;28;20034;-76
2023/04/19 06:38:30;;;;;;;6.00;2.22;;;;;;;-145.41;100.00;58600.66;5011475;28;20029;-76
2023/04/19 06:40:55;;;;;;;6.75;2.03;;;;;;;-145.41;100.00;58600.66;5011538;28;20065;-76
2023/04/19 06:43:21;;;;;;;4.88;2.00;;;;;;;-145.41;100.00;58600.66;5016277;28;20042;-76
2023/04/19 06:45:46;;;;;;;5.32;2.33;;;;;;;-145.41;100.00;58600.66;5014936;28;20417;-76
2023/04/19 06:48:12;;;;;;;5.78;1.88;;;;;;;-145.41;100.00;58600.66;5012896;28;20042;-76
2023/04/19 06:50:37;;;;;;;5.82;1.70;;;;;;;-145.41;100.00;58600.66;5012704;28;20096;-76
2023/04/19 06:53:03;;;;;;;7.03;2.00;;;;;;;-145.41;100.00;58600.66;5013032;28;20469;-76
2023/04/19 06:55:28;;;;;;;6.78;2.00;;;;;;;-145.41;100.00;58600.66;5012773;28;20042;-76
2023/04/19 06:57:54;;;;;;;6.60;2.08;;;;;;;-145.41;100.00;58600.66;5032980;23;20465;-72
2023/04/19 07:00:19;;;;;;;8.02;1.52;;;;;;;-145.41;100.00;58600.66;5001173;28;20416;-73
2023/04/19 07:02:45;;;;;;;6.68;2.20;;;;;;;-145.41;100.00;58600.66;5004212;28;20092;-73
2023/04/19 07:05:12;;;;;;;4.93;2.17;;;;;;;-145.41;100.00;58600.66;5004945;28;20041;-73
2023/04/19 07:07:37;;;;;;;5.57;1.98;;;;;;;-145.41;100.00;58600.66;5000609;28;20037;-73
2023/04/19 07:10:03;;;;;;;7.13;2.80;;;;;;;-145.41;100.00;58600.66;4990598;28;20501;-73
2023/04/19 07:12:28;;;;;;;4.70;1.92;;;;;;;-145.41;100.00;58600.66;5001091;28;20041;-73
2023/04/19 07:14:56;;;;;;;4.25;2.08;;;;;;;-145.41;100.00;58600.66;4993543;28;20408;-73
2023/04/19 07:17:22;;;;;;;5.13;1.83;;;;;;;-145.41;100.00;58600.66;4997268;28;20045;-73
2023/04/19 07:19:48;;;;;;;6.60;2.10;;;;;;;-145.41;100.00;58600.66;4992370;28;20026;-72
2023/04/19 07:22:13;;;;;;;5.75;2.17;;;;;;;-145.41;100.00;58600.66;4992906;28;20377;-73
2023/04/19 07:24:40;;;;;;;4.00;1.55;;;;;;;-145.41;100.00;58600.66;4990669;28;20125;-73
2023/04/19 07:27:06;;;;;;;5.65;1.80;;;;;;;-145.41;100.00;58600.66;4991934;28;20497;-73
2023/04/19 07:29:33;;;;;;;7.10;2.15;;;;;;;-145.41;100.00;58600.66;4991499;28;20050;-73
2023/04/19 07:32:00;;;;;;;4.50;2.00;;;;;;;-145.41;100.00;58600.66;4996984;28;20045;-73
2023/04/19 07:34:26;;;;;;;5.13;2.10;;;;;;;-145.41;100.00;58600.66;4978493;28;20058;-73
2023/04/19 07:36:51;;;;;;;3.55;1.67;;;;;;;-145.41;100.00;58600.66;4994477;28;20120;-73
2023/04/19 07:39:16;;;;;;;6.15;2.00;;;;;;;-145.41;100.00;58600.66;4992327;28;20062;-73
2023/04/19 07:41:43;;;;;;;5.22;1.92;;;;;;;-145.41;100.00;58600.66;4997332;28;20046;-73
2023/04/19 07:44:08;;;;;;;7.30;2.75;;;;;;;-145.41;100.00;58600.66;4995611;28;20489;-73
2023/04/19 07:46:33;;;;;;;7.97;2.00;;;;;;;-145.41;100.00;58600.66;4992423;28;20044;-73
2023/04/19 07:48:59;;;;;;;5.18;2.20;;;;;;;-145.41;100.00;58600.66;4991804;28;20182;-73
2023/04/19 07:51:25;;;;;;;4.60;2.15;;;;;;;-145.41;100.00;58600.66;4993560;28;20432;-73
2023/04/19 07:53:50;;;;;;;4.68;2.08;;;;;;;-145.41;100.00;58600.66;4987889;28;20045;-73
2023/04/19 07:56:15;;;;;;;5.20;2.13;;;;;;;-145.41;100.00;58600.66;4992471;28;20804;-73
2023/04/19 07:58:41;;;;;;;5.00;1.90;;;;;;;-145.41;100.00;58600.66;4995641;28;20034;-73
2023/04/19 08:01:06;;;;;;;6.57;1.77;;;;;;;-145.41;100.00;58600.66;4993108;28;20045;-73
2023/04/19 08:03:36;;;;;;;5.82;1.98;;;;;;;-145.41;100.00;58600.66;4992276;28;20412;-73
2023/04/19 08:06:04;;;;;;;5.95;2.22;;;;;;;-145.41;100.00;58600.66;4992348;28;20441;-73
2023/04/19 08:08:30;;;;;;;4.15;2.08;;;;;;;-145.41;100.00;58600.66;4991197;28;20068;-73
2023/04/19 08:10:56;;;;;;;4.47;1.48;;;;;;;-145.41;100.00;58600.66;4993385;28;20034;-73
2023/04/19 08:13:21;;;;;;;6.63;2.42;;;;;;;-145.41;100.00;58600.66;4994276;28;20033;-73
2023/04/19 08:15:47;;;;;;;5.10;1.77;;;;;;;-145.41;100.00;58600.66;4997065;28;20574;-73
2023/04/19 08:18:13;;;;;;;4.97;1.70;;;;;;;-145.41;100.00;58600.66;4990941;28;20057;-73
2023/04/19 08:20:41;;;;;;;8.40;2.13;;;;;;;-145.41;100.00;58600.66;4991733;28;20519;-73
2023/04/19 08:23:07;;;;;;;4.28;1.73;;;;;;;-145.41;100.00;58600.66;4991928;28;20035;-73
2023/04/19 08:25:33;;;;;;;4.78;1.90;;;;;;;-145.41;100.00;58600.66;4991891;28;20042;-73
2023/04/19 08:27:58;;;;;;;5.78;1.92;;;;;;;-145.41;100.00;58600.66;4991674;28;20113;-73
2023/04/19 08:30:23;;;;;;;6.35;2.25;;;;;;;-145.41;100.00;58600.66;4991597;28;20125;-73
2023/04/19 08:32:49;;;;;;;4.70;1.98;;;;;;;-145.41;100.00;58600.66;4991537;28;20092;-73
2023/04/19 08:35:15;;;;;;;6.07;2.22;;;;;;;-145.41;100.00;58600.66;4991823;28;20089;-73
2023/04/19 08:37:40;;;;;;;4.65;1.60;;;;;;;-145.41;100.00;58600.66;4991650;28;20053;-73
2023/04/19 08:40:07;;;;;;;5.82;1.88;;;;;;;-145.41;100.00;58600.66;4991269;28;20046;-73
2023/04/19 08:42:32;;;;;;;5.53;1.85;;;;;;;-145.41;100.00;58600.66;4995841;28;20404;-73
2023/04/19 08:45:04;;;;;;;6.88;1.80;;;;;;;-145.41;100.00;58600.66;4992078;28;20026;-73
2023/04/19 08:47:32;;;;;;;5.07;2.17;;;;;;;-145.41;100.00;58600.66;4978985;28;20120;-73
2023/04/19 08:50:00;;;;;;;6.32;2.10;;;;;;;-145.41;100.00;58600.66;4991279;28;20042;-73
2023/04/19 08:52:26;;;;;;;4.75;1.90;;;;;;;-145.41;100.00;58600.66;4991591;28;20042;-73
2023/04/19 08:54:53;;;;;;;4.10;1.70;;;;;;;-145.41;100.00;58600.66;4995551;28;20092;-73
2023/04/19 08:57:19;;;;;;;7.53;1.85;;;;;;;-145.41;100.00;58600.66;4995642;28;20125;-73
2023/04/19 08:59:47;;;;;;;3.92;2.05;;;;;;;-145.41;100.00;58600.66;4994568;28;20114;-73
2023/04/19 09:02:13;;;;;;;7.43;1.70;;;;;;;-145.41;100.00;58600.66;4995462;28;20180;-73
2023/04/19 09:04:38;;;;;;;4.45;1.60;;;;;;;-145.41;100.00;58600.66;4995575;28;20129;-73
2023/04/19 09:07:04;;;;;;;4.35;1.60;;;;;;;-145.41;100.00;58600.66;4994079;28;20189;-72
2023/04/19 09:09:30;;;;;;;8.10;3.33;;;;;;;-145.41;100.00;58600.66;4996032;28;20046;-73
2023/04/19 09:11:59;;;;;;;5.22;1.50;;;;;;;-145.41;100.00;58600.66;4995310;28;20038;-73
2023/04/19 09:14:26;;;;;;;6.43;1.77;;;;;;;-145.41;100.00;58600.66;4997466;28;20515;-73
2023/04/19 09:16:51;;;;;;;5.85;2.17;;;;;;;-145.41;100.00;58600.66;4995333;28;20129;-73
2023/04/19 09:19:17;;;;;;;3.90;1.77;;;;;;;-145.41;100.00;58600.66;4994879;28;20161;-73
2023/04/19 09:21:43;;;;;;;5.60;2.00;;;;;;;-145.41;100.00;58600.66;4990731;28;20136;-73
2023/04/19 09:24:08;;;;;;;8.55;2.17;;;;;;;-145.41;100.00;58600.66;4998322;28;20049;-73
2023/04/19 09:26:34;;;;;;;4.53;1.95;;;;;;;-145.41;100.00;58600.66;4996667;28;20042;-73
2023/04/19 09:29:06;;;;;;;5.28;1.90;;;;;;;-145.41;100.00;58600.66;4992739;28;20044;-73
2023/04/19 09:31:36;;;;;;;7.20;1.70;;;;;;;-145.41;100.00;58600.66;4996069;28;20505;-73
2023/04/19 09:34:13;;;;;;;5.18;1.70;;;;;;;-145.41;100.00;58600.66;5001893;28;20117;-73
2023/04/19 09:36:39;;;;;;;4.55;1.95;;;;;;;-145.41;100.00;58600.66;4997853;28;20027;-73
2023/04/19 09:39:05;;;;;;;6.00;1.90;;;;;;;-145.41;100.00;58600.66;4992332;28;20042;-73
2023/04/19 09:41:32;;;;;;;4.88;2.10;;;;;;;-145.41;100.00;58600.66;4997436;28;20038;-73
2023/04/19 09:44:11;;;;;;;10.65;2.00;;;;;;;-145.41;100.00;58600.66;4994796;28;20064;-73
2023/04/19 09:46:37;;;;;;;5.75;2.35;;;;;;;-145.41;100.00;58600.66;5000220;28;20508;-73
2023/04/19 09:49:25;;;;;;;4.70;2.10;;;;;;;-145.41;100.00;58600.66;4998729;28;20117;-73
2023/04/19 09:51:52;;;;;;;7.13;2.13;;;;;;;-145.41;100.00;58600.66;4992425;28;20405;-73
2023/04/19 09:54:20;;;;;;;4.88;1.90;;;;;;;-145.41;100.00;58600.66;4994209;28;20034;-73
2023/04/19 09:56:46;;;;;;;7.63;2.45;;;;;;;-145.41;100.00;58600.66;4994534;28;20125;-73
2023/04/19 09:59:12;;;;;;;5.40;2.15;;;;;;;-145.41;100.00;58600.66;4994121;28;20034;-73
2023/04/19 10:01:52;;;;;;;5.05;2.22;;;;;;;-145.41;100.00;58600.66;5003472;28;20057;-73
2023/04/19 10:04:22;;;;;;;5.88;2.25;;;;;;;-145.41;100.00;58600.66;4992031;28;20030;-73
2023/04/19 10:06:52;;;;;;;8.43;2.47;;;;;;;-145.41;100.00;58600.66;4994300;28;20053;-72
2023/04/19 10:09:19;;;;;;;5.95;2.33;;;;;;;-145.41;100.00;58600.66;4993872;28;20125;-74
2023/04/19 10:11:52;;;;;;;4.90;2.08;;;;;;;-145.41;100.00;58600.66;4994195;28;20112;-73
2023/04/19 10:14:23;;;;;;;4.78;1.95;;;;;;;-145.41;100.00;58600.66;4991427;28;20044;-73
2023/04/19 10:16:49;;;;;;;5.13;2.00;;;;;;;-145.41;100.00;58600.66;4996264;28;20030;-73
2023/04/19 10:19:18;;;;;;;4.60;2.17;;;;;;;-145.41;100.00;58600.66;4993679;28;20292;-73
2023/04/19 10:21:46;;;;;;;4.95;1.70;;;;;;;-145.41;100.00;58600.66;4989398;28;20042;-73
2023/04/19 10:24:17;;;;;;;4.80;2.20;;;;;;;-145.41;100.00;58600.66;4994615;28;20038;-73
2023/04/19 10:27:06;;;;;;;8.45;2.15;;;;;;;-145.41;100.00;58600.66;4995026;28;20060;-73
2023/04/19 10:29:50;;;;;;;7.22;3.78;;;;;;;-145.41;100.00;58600.66;4993372;28;20045;-73
2023/04/19 10:32:15;;;;;;;6.63;3.08;;;;;;;-145.41;100.00;58600.66;4990449;28;20065;-73
2023/04/19 10:34:41;;;;;;;7.15;4.45;;;;;;;-145.41;100.00;58600.66;4993400;28;20485;-72
2023/04/19 10:37:09;;;;;;;7.57;3.33;;;;;;;-145.41;100.00;58600.66;4993734;28;20026;-73
2023/04/19 10:39:40;;;;;;;4.80;1.90;;;;;;;-145.41;100.00;58600.66;4993347;28;20405;-73
2023/04/19 10:42:05;;;;;;;5.75;1.95;;;;;;;-145.41;100.00;58600.66;4993275;28;20053;-73
2023/04/19 10:44:31;;;;;;;6.15;2.55;;;;;;;-145.41;100.00;58600.66;4999533;28;20030;-73
2023/04/19 10:46:57;;;;;;;6.28;2.10;;;;;;;-145.41;100.00;58600.66;4997798;28;20508;-73
2023/04/19 10:49:23;;;;;;;6.40;2.33;;;;;;;-145.41;100.00;58600.66;4993401;28;20046;-73
2023/04/19 10:51:52;;;;;;;10.27;2.33;;;;;;;-145.41;100.00;58600.66;4993487;28;20038;-73
2023/04/19 10:54:26;;;;;;;8.88;2.35;;;;;;;-145.41;100.00;58600.66;4993477;28;20049;-73
2023/04/19 10:56:58;;;;;;;7.65;2.45;;;;;;;-145.41;100.00;58600.66;4989970;28;20038;-73
2023/04/19 10:59:23;;;;;;;;;;;;;;;-145.41;100.00;58600.66;4993425;28;20030;-74
2023/04/19 11:01:52;;;;;;;5.40;2.20;;;;;;;-145.41;100.00;58600.66;4993346;28;19949;-73
2023/04/19 11:04:19;;;;;;;7.35;2.67;;;;;;;-145.41;100.00;58600.66;4992635;28;20034;-73
2023/04/19 11:06:54;;;;;;;6.10;2.50;;;;;;;-145.41;100.00;58600.66;4995880;28;20132;-73